sensor_id;sensor_type;location;lat;lon;timestamp;P1;durP1;ratioP1;P2;durP2;ratioP2
64875;SDS011;51369;49.862;9.908;2022-10-31T00:00:58;13.68;;;7.38;;
64875;SDS011;51369;49.862;9.908;2022-10-31T00:03:24;15.45;;;7.35;;
64875;SDS011;51369;49.862;9.908;2022-10-31T00:05:52;20.95;;;7.35;;
64875;SDS011;51369;49.862;9.908;2022-10-31T00:08:18;16.48;;;7.55;;
64875;SDS011;51369;49.862;9.908;2022-10-31T00:10:44;13.13;;;7.03;;
64875;SDS011;51369;49.862;9.908;2022-10-31T00:13:10;22.15;;;7.47;;
64875;SDS011;51369;49.862;9.908;2022-10-31T00:15:37;19.45;;;7.28;;
64875;SDS011;51369;49.862;9.908;2022-10-31T00:18:04;10.98;;;5.93;;
64875;SDS011;51369;49.862;9.908;2022-10-31T00:20:30;13.70;;;6.72;;
64875;SDS011;51369;49.862;9.908;2022-10-31T00:23:00;15.85;;;6.00;;
64875;SDS011;51369;49.862;9.908;2022-10-31T00:25:26;10.20;;;6.38;;
64875;SDS011;51369;49.862;9.908;2022-10-31T00:27:53;17.23;;;5.65;;
64875;SDS011;51369;49.862;9.908;2022-10-31T00:30:19;16.13;;;6.05;;
64875;SDS011;51369;49.862;9.908;2022-10-31T00:32:45;14.05;;;6.32;;
64875;SDS011;51369;49.862;9.908;2022-10-31T00:35:10;11.80;;;5.63;;
64875;SDS011;51369;49.862;9.908;2022-10-31T00:37:36;11.60;;;5.55;;
64875;SDS011;51369;49.862;9.908;2022-10-31T00:40:01;13.45;;;6.85;;
64875;SDS011;51369;49.862;9.908;2022-10-31T00:42:26;11.05;;;6.18;;
64875;SDS011;51369;49.862;9.908;2022-10-31T00:44:52;10.05;;;6.20;;
64875;SDS011;51369;49.862;9.908;2022-10-31T00:47:19;12.43;;;5.72;;
64875;SDS011;51369;49.862;9.908;2022-10-31T00:49:45;10.95;;;6.15;;
64875;SDS011;51369;49.862;9.908;2022-10-31T00:52:11;9.50;;;5.35;;
64875;SDS011;51369;49.862;9.908;2022-10-31T00:54:36;15.00;;;6.30;;
64875;SDS011;51369;49.862;9.908;2022-10-31T00:57:01;13.55;;;6.18;;
64875;SDS011;51369;49.862;9.908;2022-10-31T00:59:27;11.18;;;6.03;;
64875;SDS011;51369;49.862;9.908;2022-10-31T01:01:52;15.30;;;6.40;;
64875;SDS011;51369;49.862;9.908;2022-10-31T01:04:18;16.92;;;6.53;;
64875;SDS011;51369;49.862;9.908;2022-10-31T01:06:43;15.95;;;6.30;;
64875;SDS011;51369;49.862;9.908;2022-10-31T01:09:08;13.80;;;6.78;;
64875;SDS011;51369;49.862;9.908;2022-10-31T01:11:34;16.17;;;7.30;;
64875;SDS011;51369;49.862;9.908;2022-10-31T01:14:02;18.25;;;7.75;;
64875;SDS011;51369;49.862;9.908;2022-10-31T01:16:30;12.45;;;7.35;;
64875;SDS011;51369;49.862;9.908;2022-10-31T01:18:56;16.00;;;6.53;;
64875;SDS011;51369;49.862;9.908;2022-10-31T01:21:22;14.05;;;6.85;;
64875;SDS011;51369;49.862;9.908;2022-10-31T01:23:50;21.23;;;8.45;;
64875;SDS011;51369;49.862;9.908;2022-10-31T01:26:17;21.55;;;7.63;;
64875;SDS011;51369;49.862;9.908;2022-10-31T01:31:18;20.98;;;8.70;;
64875;SDS011;51369;49.862;9.908;2022-10-31T01:33:45;13.63;;;8.15;;
64875;SDS011;51369;49.862;9.908;2022-10-31T01:36:31;13.95;;;7.95;;
64875;SDS011;51369;49.862;9.908;2022-10-31T01:38:59;20.15;;;7.28;;
64875;SDS011;51369;49.862;9.908;2022-10-31T01:41:31;13.93;;;6.95;;
64875;SDS011;51369;49.862;9.908;2022-10-31T01:46:30;13.38;;;6.28;;
64875;SDS011;51369;49.862;9.908;2022-10-31T01:49:00;8.98;;;6.68;;
64875;SDS011;51369;49.862;9.908;2022-10-31T01:51:30;17.63;;;7.05;;
64875;SDS011;51369;49.862;9.908;2022-10-31T01:54:06;15.20;;;6.95;;
64875;SDS011;51369;49.862;9.908;2022-10-31T01:56:36;13.73;;;6.95;;
64875;SDS011;51369;49.862;9.908;2022-10-31T01:59:05;21.85;;;7.13;;
64875;SDS011;51369;49.862;9.908;2022-10-31T02:01:33;18.95;;;7.13;;
64875;SDS011;51369;49.862;9.908;2022-10-31T02:04:00;15.27;;;7.65;;
64875;SDS011;51369;49.862;9.908;2022-10-31T02:09:14;14.93;;;7.30;;
64875;SDS011;51369;49.862;9.908;2022-10-31T02:11:40;16.30;;;7.70;;
64875;SDS011;51369;49.862;9.908;2022-10-31T02:14:10;12.68;;;7.65;;
64875;SDS011;51369;49.862;9.908;2022-10-31T02:16:36;10.38;;;7.15;;
64875;SDS011;51369;49.862;9.908;2022-10-31T02:19:01;18.17;;;7.00;;
64875;SDS011;51369;49.862;9.908;2022-10-31T02:21:33;14.23;;;7.75;;
64875;SDS011;51369;49.862;9.908;2022-10-31T02:27:03;11.93;;;7.30;;
64875;SDS011;51369;49.862;9.908;2022-10-31T02:29:53;8.98;;;6.82;;
64875;SDS011;51369;49.862;9.908;2022-10-31T02:32:38;13.38;;;7.32;;
64875;SDS011;51369;49.862;9.908;2022-10-31T02:37:57;15.43;;;8.13;;
64875;SDS011;51369;49.862;9.908;2022-10-31T02:43:29;13.88;;;7.82;;
64875;SDS011;51369;49.862;9.908;2022-10-31T02:46:09;12.65;;;7.72;;
64875;SDS011;51369;49.862;9.908;2022-10-31T02:48:39;14.93;;;8.77;;
64875;SDS011;51369;49.862;9.908;2022-10-31T02:51:09;27.25;;;8.60;;
64875;SDS011;51369;49.862;9.908;2022-10-31T02:53:37;16.92;;;8.73;;
64875;SDS011;51369;49.862;9.908;2022-10-31T02:56:17;19.67;;;8.32;;
64875;SDS011;51369;49.862;9.908;2022-10-31T02:58:49;14.73;;;7.63;;
64875;SDS011;51369;49.862;9.908;2022-10-31T03:01:31;20.50;;;8.02;;
64875;SDS011;51369;49.862;9.908;2022-10-31T03:04:14;15.88;;;7.35;;
64875;SDS011;51369;49.862;9.908;2022-10-31T03:12:49;13.93;;;7.10;;
64875;SDS011;51369;49.862;9.908;2022-10-31T03:15:25;14.98;;;7.15;;
64875;SDS011;51369;49.862;9.908;2022-10-31T03:17:57;15.55;;;8.05;;
64875;SDS011;51369;49.862;9.908;2022-10-31T03:20:39;12.27;;;7.70;;
64875;SDS011;51369;49.862;9.908;2022-10-31T03:23:09;15.35;;;6.57;;
64875;SDS011;51369;49.862;9.908;2022-10-31T03:25:38;12.52;;;7.30;;
64875;SDS011;51369;49.862;9.908;2022-10-31T03:28:07;11.90;;;6.80;;
64875;SDS011;51369;49.862;9.908;2022-10-31T03:30:35;10.30;;;7.32;;
64875;SDS011;51369;49.862;9.908;2022-10-31T03:33:07;11.13;;;6.28;;
64875;SDS011;51369;49.862;9.908;2022-10-31T03:35:37;13.00;;;6.70;;
64875;SDS011;51369;49.862;9.908;2022-10-31T03:38:08;17.38;;;6.88;;
64875;SDS011;51369;49.862;9.908;2022-10-31T03:40:35;12.63;;;6.82;;
64875;SDS011;51369;49.862;9.908;2022-10-31T03:43:07;10.38;;;6.57;;
64875;SDS011;51369;49.862;9.908;2022-10-31T03:45:39;13.02;;;7.10;;
64875;SDS011;51369;49.862;9.908;2022-10-31T03:48:08;15.50;;;6.53;;
64875;SDS011;51369;49.862;9.908;2022-10-31T03:53:38;9.82;;;6.53;;
64875;SDS011;51369;49.862;9.908;2022-10-31T03:56:13;16.77;;;7.07;;
64875;SDS011;51369;49.862;9.908;2022-10-31T03:58:48;16.02;;;6.72;;
64875;SDS011;51369;49.862;9.908;2022-10-31T04:01:22;9.90;;;6.50;;
64875;SDS011;51369;49.862;9.908;2022-10-31T04:03:50;11.32;;;6.60;;
64875;SDS011;51369;49.862;9.908;2022-10-31T04:06:17;10.25;;;6.20;;
64875;SDS011;51369;49.862;9.908;2022-10-31T04:08:47;16.42;;;6.35;;
64875;SDS011;51369;49.862;9.908;2022-10-31T04:11:18;12.48;;;6.35;;
64875;SDS011;51369;49.862;9.908;2022-10-31T04:14:07;12.73;;;6.47;;
64875;SDS011;51369;49.862;9.908;2022-10-31T04:16:35;11.43;;;6.35;;
64875;SDS011;51369;49.862;9.908;2022-10-31T04:19:02;11.30;;;5.93;;
64875;SDS011;51369;49.862;9.908;2022-10-31T04:21:27;9.35;;;6.55;;
64875;SDS011;51369;49.862;9.908;2022-10-31T04:23:56;13.55;;;5.70;;
64875;SDS011;51369;49.862;9.908;2022-10-31T04:26:24;11.32;;;6.13;;
64875;SDS011;51369;49.862;9.908;2022-10-31T04:28:49;11.38;;;5.47;;
64875;SDS011;51369;49.862;9.908;2022-10-31T04:31:16;14.00;;;5.18;;
64875;SDS011;51369;49.862;9.908;2022-10-31T04:33:43;12.02;;;5.97;;
64875;SDS011;51369;49.862;9.908;2022-10-31T04:36:08;8.70;;;5.18;;
64875;SDS011;51369;49.862;9.908;2022-10-31T04:38:34;20.45;;;5.90;;
64875;SDS011;51369;49.862;9.908;2022-10-31T04:41:03;41.45;;;5.00;;
64875;SDS011;51369;49.862;9.908;2022-10-31T04:43:48;34.33;;;5.70;;
64875;SDS011;51369;49.862;9.908;2022-10-31T04:46:14;17.95;;;4.63;;
64875;SDS011;51369;49.862;9.908;2022-10-31T04:48:40;12.48;;;5.07;;
64875;SDS011;51369;49.862;9.908;2022-10-31T04:51:06;10.27;;;5.72;;
64875;SDS011;51369;49.862;9.908;2022-10-31T04:53:32;11.77;;;5.93;;
64875;SDS011;51369;49.862;9.908;2022-10-31T04:56:20;8.57;;;5.65;;
64875;SDS011;51369;49.862;9.908;2022-10-31T04:58:49;14.40;;;5.60;;
64875;SDS011;51369;49.862;9.908;2022-10-31T05:01:14;14.52;;;5.68;;
64875;SDS011;51369;49.862;9.908;2022-10-31T05:03:40;8.73;;;5.32;;
64875;SDS011;51369;49.862;9.908;2022-10-31T05:06:06;9.15;;;5.32;;
64875;SDS011;51369;49.862;9.908;2022-10-31T05:08:33;6.93;;;4.90;;
64875;SDS011;51369;49.862;9.908;2022-10-31T05:11:02;8.05;;;4.78;;
64875;SDS011;51369;49.862;9.908;2022-10-31T05:13:28;8.85;;;5.25;;
64875;SDS011;51369;49.862;9.908;2022-10-31T05:16:21;8.48;;;4.57;;
64875;SDS011;51369;49.862;9.908;2022-10-31T05:19:14;14.45;;;5.45;;
64875;SDS011;51369;49.862;9.908;2022-10-31T05:22:03;11.82;;;5.30;;
64875;SDS011;51369;49.862;9.908;2022-10-31T05:24:31;7.22;;;4.88;;
64875;SDS011;51369;49.862;9.908;2022-10-31T05:26:56;11.85;;;5.85;;
64875;SDS011;51369;49.862;9.908;2022-10-31T05:29:21;6.00;;;4.93;;
64875;SDS011;51369;49.862;9.908;2022-10-31T05:31:47;11.63;;;5.90;;
64875;SDS011;51369;49.862;9.908;2022-10-31T05:34:32;9.75;;;5.25;;
64875;SDS011;51369;49.862;9.908;2022-10-31T05:37:34;10.48;;;5.78;;
64875;SDS011;51369;49.862;9.908;2022-10-31T05:40:00;12.52;;;5.65;;
64875;SDS011;51369;49.862;9.908;2022-10-31T05:42:28;10.48;;;5.30;;
64875;SDS011;51369;49.862;9.908;2022-10-31T05:44:53;10.43;;;5.75;;
64875;SDS011;51369;49.862;9.908;2022-10-31T05:47:29;8.35;;;5.63;;
64875;SDS011;51369;49.862;9.908;2022-10-31T05:50:33;11.75;;;5.75;;
64875;SDS011;51369;49.862;9.908;2022-10-31T05:53:07;9.30;;;5.93;;
64875;SDS011;51369;49.862;9.908;2022-10-31T05:55:36;9.18;;;5.70;;
64875;SDS011;51369;49.862;9.908;2022-10-31T05:58:10;14.38;;;5.78;;
64875;SDS011;51369;49.862;9.908;2022-10-31T06:00:38;14.02;;;6.18;;
64875;SDS011;51369;49.862;9.908;2022-10-31T06:03:08;18.92;;;5.57;;
64875;SDS011;51369;49.862;9.908;2022-10-31T06:06:01;11.25;;;5.30;;
64875;SDS011;51369;49.862;9.908;2022-10-31T06:08:32;13.70;;;5.60;;
64875;SDS011;51369;49.862;9.908;2022-10-31T06:11:01;15.00;;;7.38;;
64875;SDS011;51369;49.862;9.908;2022-10-31T06:13:49;16.88;;;5.80;;
64875;SDS011;51369;49.862;9.908;2022-10-31T06:16:20;21.13;;;5.72;;
64875;SDS011;51369;49.862;9.908;2022-10-31T06:18:46;12.60;;;5.60;;
64875;SDS011;51369;49.862;9.908;2022-10-31T06:21:12;18.92;;;5.60;;
64875;SDS011;51369;49.862;9.908;2022-10-31T06:23:38;17.63;;;5.85;;
64875;SDS011;51369;49.862;9.908;2022-10-31T06:26:23;10.45;;;6.43;;
64875;SDS011;51369;49.862;9.908;2022-10-31T06:28:48;13.20;;;8.20;;
64875;SDS011;51369;49.862;9.908;2022-10-31T06:31:30;15.65;;;7.53;;
64875;SDS011;51369;49.862;9.908;2022-10-31T06:33:56;18.58;;;7.32;;
64875;SDS011;51369;49.862;9.908;2022-10-31T06:36:22;19.27;;;6.30;;
64875;SDS011;51369;49.862;9.908;2022-10-31T06:38:47;22.13;;;6.72;;
64875;SDS011;51369;49.862;9.908;2022-10-31T06:41:15;25.65;;;6.55;;
64875;SDS011;51369;49.862;9.908;2022-10-31T06:43:45;19.25;;;6.35;;
64875;SDS011;51369;49.862;9.908;2022-10-31T06:46:33;9.35;;;6.55;;
64875;SDS011;51369;49.862;9.908;2022-10-31T06:49:24;14.32;;;6.85;;
64875;SDS011;51369;49.862;9.908;2022-10-31T06:51:55;10.63;;;7.38;;
64875;SDS011;51369;49.862;9.908;2022-10-31T06:54:21;29.98;;;8.10;;
64875;SDS011;51369;49.862;9.908;2022-10-31T06:56:47;16.65;;;7.57;;
64875;SDS011;51369;49.862;9.908;2022-10-31T06:59:14;20.23;;;7.68;;
64875;SDS011;51369;49.862;9.908;2022-10-31T07:01:58;17.27;;;7.90;;
64875;SDS011;51369;49.862;9.908;2022-10-31T07:04:24;12.60;;;7.50;;
64875;SDS011;51369;49.862;9.908;2022-10-31T07:06:51;11.60;;;8.25;;
64875;SDS011;51369;49.862;9.908;2022-10-31T07:09:18;12.05;;;8.13;;
64875;SDS011;51369;49.862;9.908;2022-10-31T07:11:44;15.13;;;8.23;;
64875;SDS011;51369;49.862;9.908;2022-10-31T07:14:11;18.88;;;7.80;;
64875;SDS011;51369;49.862;9.908;2022-10-31T07:16:36;9.40;;;7.00;;
64875;SDS011;51369;49.862;9.908;2022-10-31T07:19:03;11.00;;;7.03;;
64875;SDS011;51369;49.862;9.908;2022-10-31T07:21:29;8.50;;;6.75;;
64875;SDS011;51369;49.862;9.908;2022-10-31T07:23:54;8.48;;;6.70;;
64875;SDS011;51369;49.862;9.908;2022-10-31T07:26:55;10.23;;;6.70;;
64875;SDS011;51369;49.862;9.908;2022-10-31T07:29:20;16.67;;;6.55;;
64875;SDS011;51369;49.862;9.908;2022-10-31T07:31:46;10.77;;;6.93;;
64875;SDS011;51369;49.862;9.908;2022-10-31T07:37:13;6.60;;;5.88;;
64875;SDS011;51369;49.862;9.908;2022-10-31T07:39:38;9.55;;;6.85;;
64875;SDS011;51369;49.862;9.908;2022-10-31T07:42:05;6.95;;;6.25;;
64875;SDS011;51369;49.862;9.908;2022-10-31T07:44:31;9.98;;;6.25;;
64875;SDS011;51369;49.862;9.908;2022-10-31T07:47:22;8.95;;;6.57;;
64875;SDS011;51369;49.862;9.908;2022-10-31T07:50:07;13.35;;;8.35;;
64875;SDS011;51369;49.862;9.908;2022-10-31T07:53:01;15.20;;;8.95;;
64875;SDS011;51369;49.862;9.908;2022-10-31T07:55:57;9.82;;;8.02;;
64875;SDS011;51369;49.862;9.908;2022-10-31T07:58:27;13.50;;;9.43;;
64875;SDS011;51369;49.862;9.908;2022-10-31T08:00:53;26.00;;;12.50;;
64875;SDS011;51369;49.862;9.908;2022-10-31T08:03:28;25.67;;;14.57;;
64875;SDS011;51369;49.862;9.908;2022-10-31T08:06:09;14.90;;;9.90;;
64875;SDS011;51369;49.862;9.908;2022-10-31T08:08:57;17.27;;;10.07;;
64875;SDS011;51369;49.862;9.908;2022-10-31T08:11:23;16.98;;;9.73;;
64875;SDS011;51369;49.862;9.908;2022-10-31T08:13:48;16.67;;;9.00;;
64875;SDS011;51369;49.862;9.908;2022-10-31T08:16:14;18.77;;;10.80;;
64875;SDS011;51369;49.862;9.908;2022-10-31T08:18:53;18.73;;;10.73;;
64875;SDS011;51369;49.862;9.908;2022-10-31T08:21:21;18.42;;;10.85;;
64875;SDS011;51369;49.862;9.908;2022-10-31T08:23:47;20.05;;;11.45;;
64875;SDS011;51369;49.862;9.908;2022-10-31T08:26:13;19.40;;;11.45;;
64875;SDS011;51369;49.862;9.908;2022-10-31T08:28:38;24.48;;;12.82;;
64875;SDS011;51369;49.862;9.908;2022-10-31T08:31:04;28.30;;;16.05;;
64875;SDS011;51369;49.862;9.908;2022-10-31T08:33:59;24.90;;;12.60;;
64875;SDS011;51369;49.862;9.908;2022-10-31T08:36:25;27.17;;;11.68;;
64875;SDS011;51369;49.862;9.908;2022-10-31T08:38:57;23.08;;;11.18;;
64875;SDS011;51369;49.862;9.908;2022-10-31T08:41:23;22.50;;;11.45;;
64875;SDS011;51369;49.862;9.908;2022-10-31T08:43:48;29.30;;;12.07;;
64875;SDS011;51369;49.862;9.908;2022-10-31T08:46:14;26.05;;;13.05;;
64875;SDS011;51369;49.862;9.908;2022-10-31T08:48:42;37.90;;;14.60;;
64875;SDS011;51369;49.862;9.908;2022-10-31T08:51:08;36.78;;;15.32;;
64875;SDS011;51369;49.862;9.908;2022-10-31T08:53:35;40.63;;;14.68;;
64875;SDS011;51369;49.862;9.908;2022-10-31T08:56:20;41.90;;;16.65;;
64875;SDS011;51369;49.862;9.908;2022-10-31T08:58:47;35.33;;;17.10;;
64875;SDS011;51369;49.862;9.908;2022-10-31T09:01:13;43.03;;;21.83;;
64875;SDS011;51369;49.862;9.908;2022-10-31T09:03:38;60.72;;;27.77;;
64875;SDS011;51369;49.862;9.908;2022-10-31T09:06:04;64.30;;;30.58;;
64875;SDS011;51369;49.862;9.908;2022-10-31T09:08:33;41.63;;;21.50;;
64875;SDS011;51369;49.862;9.908;2022-10-31T09:11:01;46.35;;;19.60;;
64875;SDS011;51369;49.862;9.908;2022-10-31T09:16:38;45.97;;;19.10;;
64875;SDS011;51369;49.862;9.908;2022-10-31T09:19:08;46.88;;;19.23;;
64875;SDS011;51369;49.862;9.908;2022-10-31T09:21:34;31.92;;;17.90;;
64875;SDS011;51369;49.862;9.908;2022-10-31T09:23:59;58.47;;;18.52;;
64875;SDS011;51369;49.862;9.908;2022-10-31T09:26:25;52.15;;;17.90;;
64875;SDS011;51369;49.862;9.908;2022-10-31T09:29:03;54.70;;;17.13;;
64875;SDS011;51369;49.862;9.908;2022-10-31T09:31:30;38.22;;;17.88;;
64875;SDS011;51369;49.862;9.908;2022-10-31T09:34:05;53.33;;;19.08;;
64875;SDS011;51369;49.862;9.908;2022-10-31T09:36:37;41.97;;;19.43;;
64875;SDS011;51369;49.862;9.908;2022-10-31T09:39:06;45.22;;;19.83;;
64875;SDS011;51369;49.862;9.908;2022-10-31T09:41:42;48.20;;;19.38;;
64875;SDS011;51369;49.862;9.908;2022-10-31T09:44:39;42.03;;;19.92;;
64875;SDS011;51369;49.862;9.908;2022-10-31T09:47:17;46.58;;;18.55;;
64875;SDS011;51369;49.862;9.908;2022-10-31T09:50:36;36.22;;;18.75;;
64875;SDS011;51369;49.862;9.908;2022-10-31T09:53:39;50.15;;;19.55;;
64875;SDS011;51369;49.862;9.908;2022-10-31T09:56:12;78.20;;;19.50;;
64875;SDS011;51369;49.862;9.908;2022-10-31T09:58:41;47.85;;;20.00;;
64875;SDS011;51369;49.862;9.908;2022-10-31T10:01:15;80.65;;;20.05;;
64875;SDS011;51369;49.862;9.908;2022-10-31T10:03:51;44.03;;;18.48;;
64875;SDS011;51369;49.862;9.908;2022-10-31T10:06:45;46.38;;;19.95;;
64875;SDS011;51369;49.862;9.908;2022-10-31T10:09:48;51.40;;;18.83;;
64875;SDS011;51369;49.862;9.908;2022-10-31T10:18:05;46.25;;;21.17;;
64875;SDS011;51369;49.862;9.908;2022-10-31T10:20:44;40.92;;;19.40;;
64875;SDS011;51369;49.862;9.908;2022-10-31T10:26:20;38.00;;;18.88;;
64875;SDS011;51369;49.862;9.908;2022-10-31T10:28:51;49.50;;;19.20;;
64875;SDS011;51369;49.862;9.908;2022-10-31T10:31:30;34.80;;;20.35;;
64875;SDS011;51369;49.862;9.908;2022-10-31T10:36:52;32.08;;;20.20;;
64875;SDS011;51369;49.862;9.908;2022-10-31T10:39:24;35.20;;;17.10;;
64875;SDS011;51369;49.862;9.908;2022-10-31T10:41:55;26.05;;;17.48;;
64875;SDS011;51369;49.862;9.908;2022-10-31T10:44:43;24.30;;;16.02;;
64875;SDS011;51369;49.862;9.908;2022-10-31T10:47:33;34.05;;;16.98;;
64875;SDS011;51369;49.862;9.908;2022-10-31T10:50:08;24.60;;;15.75;;
64875;SDS011;51369;49.862;9.908;2022-10-31T10:52:50;26.65;;;16.35;;
64875;SDS011;51369;49.862;9.908;2022-10-31T10:55:29;27.45;;;15.85;;
64875;SDS011;51369;49.862;9.908;2022-10-31T11:02:54;29.52;;;17.08;;
64875;SDS011;51369;49.862;9.908;2022-10-31T11:05:33;32.15;;;18.13;;
64875;SDS011;51369;49.862;9.908;2022-10-31T11:08:25;37.92;;;17.95;;
64875;SDS011;51369;49.862;9.908;2022-10-31T11:13:26;28.63;;;17.48;;
64875;SDS011;51369;49.862;9.908;2022-10-31T11:16:09;30.92;;;17.23;;
64875;SDS011;51369;49.862;9.908;2022-10-31T11:18:45;26.52;;;17.77;;
64875;SDS011;51369;49.862;9.908;2022-10-31T11:21:25;26.17;;;16.40;;
64875;SDS011;51369;49.862;9.908;2022-10-31T11:24:03;26.95;;;17.63;;
64875;SDS011;51369;49.862;9.908;2022-10-31T11:26:29;31.65;;;17.75;;
64875;SDS011;51369;49.862;9.908;2022-10-31T11:28:58;28.02;;;17.52;;
64875;SDS011;51369;49.862;9.908;2022-10-31T11:31:24;29.80;;;16.75;;
64875;SDS011;51369;49.862;9.908;2022-10-31T11:34:02;23.02;;;17.27;;
64875;SDS011;51369;49.862;9.908;2022-10-31T11:36:29;23.02;;;16.67;;
64875;SDS011;51369;49.862;9.908;2022-10-31T11:38:58;28.80;;;17.75;;
64875;SDS011;51369;49.862;9.908;2022-10-31T11:41:32;32.10;;;19.30;;
64875;SDS011;51369;49.862;9.908;2022-10-31T11:44:04;39.88;;;18.58;;
64875;SDS011;51369;49.862;9.908;2022-10-31T11:46:44;32.83;;;18.20;;
64875;SDS011;51369;49.862;9.908;2022-10-31T11:49:16;27.60;;;18.17;;
64875;SDS011;51369;49.862;9.908;2022-10-31T11:51:49;35.58;;;17.00;;
64875;SDS011;51369;49.862;9.908;2022-10-31T11:54:26;30.63;;;19.55;;
64875;SDS011;51369;49.862;9.908;2022-10-31T11:56:54;30.02;;;18.05;;
64875;SDS011;51369;49.862;9.908;2022-10-31T11:59:25;25.25;;;18.88;;
64875;SDS011;51369;49.862;9.908;2022-10-31T12:01:57;28.25;;;18.40;;
64875;SDS011;51369;49.862;9.908;2022-10-31T12:04:44;29.15;;;18.92;;
64875;SDS011;51369;49.862;9.908;2022-10-31T12:07:14;27.88;;;19.35;;
64875;SDS011;51369;49.862;9.908;2022-10-31T12:09:39;30.52;;;19.02;;
64875;SDS011;51369;49.862;9.908;2022-10-31T12:12:10;32.10;;;19.55;;
64875;SDS011;51369;49.862;9.908;2022-10-31T12:17:42;31.38;;;19.92;;
64875;SDS011;51369;49.862;9.908;2022-10-31T12:23:21;28.50;;;19.48;;
64875;SDS011;51369;49.862;9.908;2022-10-31T12:26:07;30.65;;;18.55;;
64875;SDS011;51369;49.862;9.908;2022-10-31T12:28:54;32.20;;;21.98;;
64875;SDS011;51369;49.862;9.908;2022-10-31T12:40:30;32.50;;;21.55;;
64875;SDS011;51369;49.862;9.908;2022-10-31T12:45:54;30.15;;;20.55;;
64875;SDS011;51369;49.862;9.908;2022-10-31T12:57:13;31.48;;;22.67;;
64875;SDS011;51369;49.862;9.908;2022-10-31T12:59:47;31.33;;;21.90;;
64875;SDS011;51369;49.862;9.908;2022-10-31T13:05:22;32.60;;;22.52;;
64875;SDS011;51369;49.862;9.908;2022-10-31T13:08:05;32.78;;;24.15;;
64875;SDS011;51369;49.862;9.908;2022-10-31T13:10:45;35.65;;;24.63;;
64875;SDS011;51369;49.862;9.908;2022-10-31T13:13:18;36.10;;;24.83;;
64875;SDS011;51369;49.862;9.908;2022-10-31T13:15:48;31.70;;;23.85;;
64875;SDS011;51369;49.862;9.908;2022-10-31T13:18:22;34.08;;;23.95;;
64875;SDS011;51369;49.862;9.908;2022-10-31T13:20:58;32.80;;;23.38;;
64875;SDS011;51369;49.862;9.908;2022-10-31T13:23:33;32.00;;;22.67;;
64875;SDS011;51369;49.862;9.908;2022-10-31T13:26:08;37.38;;;23.98;;
64875;SDS011;51369;49.862;9.908;2022-10-31T13:28:43;34.05;;;23.65;;
64875;SDS011;51369;49.862;9.908;2022-10-31T13:31:12;34.55;;;22.65;;
64875;SDS011;51369;49.862;9.908;2022-10-31T13:33:39;31.63;;;23.20;;
64875;SDS011;51369;49.862;9.908;2022-10-31T13:39:11;29.45;;;22.17;;
64875;SDS011;51369;49.862;9.908;2022-10-31T13:42:17;30.92;;;20.85;;
64875;SDS011;51369;49.862;9.908;2022-10-31T13:44:35;30.85;;;21.60;;
64875;SDS011;51369;49.862;9.908;2022-10-31T13:47:03;29.27;;;20.63;;
64875;SDS011;51369;49.862;9.908;2022-10-31T13:54:35;28.77;;;21.13;;
64875;SDS011;51369;49.862;9.908;2022-10-31T13:57:06;32.38;;;21.63;;
64875;SDS011;51369;49.862;9.908;2022-10-31T13:59:37;31.70;;;22.20;;
64875;SDS011;51369;49.862;9.908;2022-10-31T14:02:12;31.35;;;23.05;;
64875;SDS011;51369;49.862;9.908;2022-10-31T14:04:54;31.25;;;22.73;;
64875;SDS011;51369;49.862;9.908;2022-10-31T14:07:23;36.13;;;22.08;;
64875;SDS011;51369;49.862;9.908;2022-10-31T14:10:25;36.67;;;22.33;;
64875;SDS011;51369;49.862;9.908;2022-10-31T14:12:46;28.20;;;20.85;;
64875;SDS011;51369;49.862;9.908;2022-10-31T14:17:54;32.00;;;20.60;;
64875;SDS011;51369;49.862;9.908;2022-10-31T14:20:22;31.02;;;20.95;;
64875;SDS011;51369;49.862;9.908;2022-10-31T14:22:56;26.20;;;19.35;;
64875;SDS011;51369;49.862;9.908;2022-10-31T14:27:49;25.38;;;17.40;;
64875;SDS011;51369;49.862;9.908;2022-10-31T14:30:17;27.13;;;18.88;;
64875;SDS011;51369;49.862;9.908;2022-10-31T14:32:52;23.50;;;18.35;;
64875;SDS011;51369;49.862;9.908;2022-10-31T14:48:51;24.02;;;18.15;;
64875;SDS011;51369;49.862;9.908;2022-10-31T14:51:36;24.65;;;16.65;;
64875;SDS011;51369;49.862;9.908;2022-10-31T14:54:05;23.75;;;17.85;;
64875;SDS011;51369;49.862;9.908;2022-10-31T14:56:46;20.58;;;16.48;;
64875;SDS011;51369;49.862;9.908;2022-10-31T14:59:15;24.40;;;17.33;;
64875;SDS011;51369;49.862;9.908;2022-10-31T15:01:50;22.10;;;16.95;;
64875;SDS011;51369;49.862;9.908;2022-10-31T15:04:22;23.20;;;17.27;;
64875;SDS011;51369;49.862;9.908;2022-10-31T15:06:50;24.27;;;17.52;;
64875;SDS011;51369;49.862;9.908;2022-10-31T15:09:20;24.25;;;17.48;;
64875;SDS011;51369;49.862;9.908;2022-10-31T15:11:47;25.77;;;17.10;;
64875;SDS011;51369;49.862;9.908;2022-10-31T15:14:28;28.25;;;18.40;;
64875;SDS011;51369;49.862;9.908;2022-10-31T15:16:58;21.52;;;16.52;;
64875;SDS011;51369;49.862;9.908;2022-10-31T15:19:28;24.50;;;16.95;;
64875;SDS011;51369;49.862;9.908;2022-10-31T15:21:55;25.55;;;18.02;;
64875;SDS011;51369;49.862;9.908;2022-10-31T15:24:23;25.70;;;18.77;;
64875;SDS011;51369;49.862;9.908;2022-10-31T15:26:53;27.92;;;18.30;;
64875;SDS011;51369;49.862;9.908;2022-10-31T15:29:21;25.60;;;18.55;;
64875;SDS011;51369;49.862;9.908;2022-10-31T15:31:51;26.45;;;17.20;;
64875;SDS011;51369;49.862;9.908;2022-10-31T15:34:42;29.33;;;18.17;;
64875;SDS011;51369;49.862;9.908;2022-10-31T15:37:13;24.42;;;16.67;;
64875;SDS011;51369;49.862;9.908;2022-10-31T15:42:23;24.17;;;17.48;;
64875;SDS011;51369;49.862;9.908;2022-10-31T15:44:55;24.33;;;17.58;;
64875;SDS011;51369;49.862;9.908;2022-10-31T15:47:28;30.42;;;19.00;;
64875;SDS011;51369;49.862;9.908;2022-10-31T15:49:56;27.85;;;19.17;;
64875;SDS011;51369;49.862;9.908;2022-10-31T15:52:32;42.35;;;17.90;;
64875;SDS011;51369;49.862;9.908;2022-10-31T15:55:05;27.63;;;19.67;;
64875;SDS011;51369;49.862;9.908;2022-10-31T15:57:43;24.98;;;18.35;;
64875;SDS011;51369;49.862;9.908;2022-10-31T16:05:48;35.40;;;17.23;;
64875;SDS011;51369;49.862;9.908;2022-10-31T16:10:56;68.25;;;13.50;;
64875;SDS011;51369;49.862;9.908;2022-10-31T16:13:28;72.45;;;14.75;;
64875;SDS011;51369;49.862;9.908;2022-10-31T16:15:56;80.47;;;14.25;;
64875;SDS011;51369;49.862;9.908;2022-10-31T16:18:25;86.72;;;15.23;;
64875;SDS011;51369;49.862;9.908;2022-10-31T16:20:53;80.28;;;15.27;;
64875;SDS011;51369;49.862;9.908;2022-10-31T16:23:20;72.93;;;15.77;;
64875;SDS011;51369;49.862;9.908;2022-10-31T16:25:48;46.60;;;15.00;;
64875;SDS011;51369;49.862;9.908;2022-10-31T16:28:17;62.03;;;14.63;;
64875;SDS011;51369;49.862;9.908;2022-10-31T16:30:49;57.50;;;15.27;;
64875;SDS011;51369;49.862;9.908;2022-10-31T16:35:59;56.58;;;15.43;;
64875;SDS011;51369;49.862;9.908;2022-10-31T16:38:27;44.95;;;15.50;;
64875;SDS011;51369;49.862;9.908;2022-10-31T16:40:53;63.20;;;14.95;;
64875;SDS011;51369;49.862;9.908;2022-10-31T16:43:19;49.65;;;15.85;;
64875;SDS011;51369;49.862;9.908;2022-10-31T16:45:48;23.02;;;14.40;;
64875;SDS011;51369;49.862;9.908;2022-10-31T16:48:19;24.02;;;18.08;;
64875;SDS011;51369;49.862;9.908;2022-10-31T16:50:47;25.98;;;19.38;;
64875;SDS011;51369;49.862;9.908;2022-10-31T16:53:14;31.00;;;19.42;;
64875;SDS011;51369;49.862;9.908;2022-10-31T16:55:59;29.65;;;20.92;;
64875;SDS011;51369;49.862;9.908;2022-10-31T16:58:33;43.40;;;23.75;;